Mountain Home Air Force Base Mountain Home US
ICAO: KMUO
IATA: MUO
Category: Large
Scheduled Services: No

Elevation: 2996 ft
TransAlt. 18000 ft.

Airport Communications:
APP:124.8
ATIS:27.35
CLNC DEL:127.1
DEP:37.12
GND:120.5
PMSV METRO:34.25
ACC COMD POST:38.13
PTD:138.9
BOISE RDO:122.6
TWR:133.85

KMUO Zoom In..

If you have problems with the map follow the link
https://www.worldairports.se/pages/airport.php?
ICAO=KMUO

Runways:

(A) RW 12 length 13508 ft width 200 ft
ILS 110.30 / hdg 117

(B) RW 30 length 13508 ft width 200 ft
ILS 111.70 / hdg 297

Location; KMUO
Day. 11 / Time. 13.58 Zulu
* Altimeter: 30.14
* Temperature: 01° c. 33.8°f.
* Wind from: 130° Speed 12 kn.
Dewpoint: 01° c.
Visibility: 10 Statute Miles.
Clouds: Few 1300 ft.
Clouds: Scattered 2300 ft.
Clouds: Broken 3800 ft.
Conditions: Light Rain.

KMUO 111358Z 13012KT 10SM -RA FEW013 SCT023 BKN038 01/01 A3014 RMK AO2A SLP226 P0000 T00070007


Wind From 130°
Speed 12 kn.

 
 
jpsmedia worldairports.se 2019   terms of use